createdAt,value
2023-08-04T00:28:58.471Z,415.41
2023-08-04T00:43:53.330Z,416.29
2023-08-04T01:46:23.402Z,416.97
2023-08-04T01:51:53.914Z,417.42
2023-08-04T02:03:42.522Z,413.96
2023-08-04T02:15:20.378Z,415.08
2023-08-04T02:25:20.420Z,415.41
2023-08-04T02:37:43.101Z,415.22
2023-08-04T03:01:02.326Z,415.91
2023-08-04T03:12:17.671Z,416.47
2023-08-04T03:18:30.391Z,416.58
2023-08-04T03:37:33.895Z,414.16
2023-08-04T03:46:08.964Z,414.85
2023-08-04T03:51:55.124Z,415.47
2023-08-04T03:59:42.012Z,414.62
2023-08-04T04:31:14.325Z,414.52
2023-08-04T04:37:18.141Z,414.60
2023-08-04T04:43:06.041Z,414.74
2023-08-04T04:49:56.335Z,414.66
2023-08-04T04:55:34.594Z,413.97
2023-08-04T05:14:23.285Z,413.18
2023-08-04T05:20:46.710Z,413.19
2023-08-04T05:26:29.226Z,413.73
2023-08-04T05:32:12.992Z,414.01
2023-08-04T05:39:53.880Z,414.17
2023-08-04T05:45:58.899Z,414.33
2023-08-04T05:51:03.970Z,415.64
2023-08-04T06:03:22.099Z,415.45
2023-08-04T06:09:43.762Z,414.09
2023-08-04T06:15:27.815Z,413.98
2023-08-04T06:21:37.685Z,414.10
2023-08-04T06:27:27.105Z,415.57
2023-08-04T06:46:14.878Z,414.51
2023-08-04T06:57:10.194Z,413.24
2023-08-04T07:10:35.015Z,412.55
2023-08-04T07:16:22.318Z,412.76
2023-08-04T07:22:28.734Z,412.39
2023-08-04T07:33:37.158Z,414.22
2023-08-04T07:44:12.102Z,415.31
2023-08-04T07:49:59.377Z,415.12
2023-08-04T07:55:44.980Z,415.70
2023-08-04T08:01:47.445Z,415.14
2023-08-04T08:18:28.999Z,413.83
2023-08-04T08:52:32.074Z,413.93
2023-08-04T09:06:27.876Z,415.54
2023-08-04T09:10:40.410Z,415.63
2023-08-04T09:16:25.736Z,415.05
2023-08-04T09:22:12.921Z,414.62
2023-08-04T09:27:58.354Z,415.81
2023-08-04T09:33:41.103Z,417.23
2023-08-04T09:39:23.476Z,415.23
2023-08-04T09:44:33.755Z,414.21
2023-08-04T09:49:44.838Z,414.62
2023-08-04T09:54:54.835Z,414.46
2023-08-04T10:00:00.372Z,414.25
2023-08-04T10:05:07.851Z,415.14
2023-08-04T10:10:28.497Z,416.49
2023-08-04T10:15:36.053Z,417.44
2023-08-04T10:20:43.388Z,418.03
2023-08-04T10:25:50.903Z,417.52
2023-08-04T10:30:58.265Z,413.13
2023-08-04T10:36:09.033Z,413.41
2023-08-04T10:41:21.448Z,416.26
2023-08-04T10:47:06.992Z,416.47
2023-08-04T10:52:49.596Z,416.47
2023-08-04T10:58:32.078Z,418.54
2023-08-04T11:04:52.178Z,418.85
2023-08-04T11:16:43.542Z,418.19
2023-08-04T11:22:30.089Z,418.75
2023-08-04T11:28:28.297Z,420.20
2023-08-04T11:35:04.305Z,420.21
2023-08-04T11:56:35.017Z,420.22
2023-08-04T12:15:02.425Z,420.16
2023-08-04T12:33:15.765Z,421.21
2023-08-04T12:42:20.219Z,421.46
2023-08-04T12:48:03.420Z,421.20
2023-08-04T12:54:04.071Z,422.52
2023-08-04T12:59:46.623Z,422.05
2023-08-04T13:06:19.744Z,423.12
2023-08-04T13:12:07.117Z,421.46
2023-08-04T13:35:46.373Z,420.58
2023-08-04T13:41:40.913Z,420.30
2023-08-04T13:57:08.429Z,421.15
2023-08-04T14:01:06.642Z,421.57
2023-08-04T14:22:58.634Z,423.57
2023-08-04T14:28:15.108Z,422.81
2023-08-04T14:35:10.087Z,423.04
2023-08-04T15:04:01.601Z,419.65
2023-08-04T15:09:06.773Z,420.26
2023-08-04T15:15:04.842Z,419.70
2023-08-04T15:33:24.130Z,418.83
2023-08-04T15:38:36.974Z,417.67
2023-08-04T15:44:27.538Z,416.44
2023-08-04T15:49:33.044Z,416.54
2023-08-04T15:55:03.072Z,415.55
2023-08-04T16:00:07.895Z,415.54
2023-08-04T16:05:15.322Z,415.71
2023-08-04T16:10:37.850Z,415.74
2023-08-04T16:15:45.765Z,416.26
2023-08-04T16:20:53.408Z,416.29
2023-08-04T16:26:00.966Z,415.90
2023-08-04T16:31:45.473Z,417.17
2023-08-04T16:37:07.928Z,416.00
2023-08-04T16:42:15.852Z,415.54
2023-08-04T16:47:23.561Z,415.13
2023-08-04T16:52:31.709Z,414.07
2023-08-04T16:57:48.202Z,413.44
2023-08-04T17:02:55.941Z,412.91
2023-08-04T17:08:03.967Z,412.69
2023-08-04T17:17:52.257Z,410.75
2023-08-04T17:18:35.930Z,410.80
2023-08-04T17:23:48.508Z,411.14
2023-08-04T17:28:56.193Z,411.10
2023-08-04T17:34:06.258Z,411.16
2023-08-04T17:39:14.214Z,410.86
2023-08-04T17:44:26.811Z,410.06
2023-08-04T17:49:34.536Z,408.42
2023-08-04T17:54:54.146Z,407.33
2023-08-04T18:00:01.735Z,406.14
2023-08-04T18:05:09.490Z,404.10
2023-08-04T18:10:16.950Z,403.41
2023-08-04T18:15:24.642Z,402.86
2023-08-04T18:20:32.066Z,401.40
2023-08-04T18:25:39.589Z,400.77
2023-08-04T18:30:47.533Z,399.67
2023-08-04T18:36:07.306Z,399.53
2023-08-04T18:41:08.920Z,399.60
2023-08-04T18:46:17.004Z,400.79
2023-08-04T18:52:10.868Z,400.25
2023-08-04T18:56:38.292Z,399.82
2023-08-04T19:02:21.277Z,399.50
2023-08-04T19:07:29.515Z,399.74
2023-08-04T19:12:37.905Z,398.49
2023-08-04T19:18:11.881Z,398.32
2023-08-04T19:23:07.745Z,396.74
2023-08-04T19:28:22.731Z,396.87
2023-08-04T19:33:31.156Z,397.69
2023-08-04T19:38:48.480Z,397.24
2023-08-04T19:43:51.629Z,397.17
2023-08-04T19:49:55.727Z,397.47
2023-08-04T19:54:19.372Z,398.10
2023-08-04T19:59:27.473Z,398.59
2023-08-04T20:10:04.145Z,394.44
2023-08-04T20:15:17.026Z,392.56
2023-08-04T20:20:25.617Z,391.03
2023-08-04T20:26:13.733Z,390.91
2023-08-04T20:31:22.957Z,391.38
2023-08-04T20:37:11.177Z,390.28
2023-08-04T20:42:19.307Z,389.51
2023-08-04T20:47:45.016Z,388.69
2023-08-04T20:52:40.571Z,388.31
2023-08-04T20:57:55.968Z,389.82
2023-08-04T21:03:02.637Z,390.13
2023-08-04T21:08:09.977Z,388.82
2023-08-04T21:13:17.367Z,389.06
2023-08-04T21:18:39.852Z,388.52
2023-08-04T21:24:02.298Z,387.81
2023-08-04T21:29:10.202Z,388.51
2023-08-04T21:34:18.050Z,389.60
2023-08-04T21:39:25.689Z,389.13
2023-08-04T21:44:33.458Z,389.00
2023-08-04T21:49:41.218Z,389.43
2023-08-04T21:55:28.034Z,388.79
2023-08-04T22:00:01.380Z,388.35
2023-08-04T22:05:11.932Z,388.75
2023-08-04T22:10:19.514Z,389.32
2023-08-04T22:15:27.096Z,389.80
2023-08-04T22:20:34.612Z,389.12
2023-08-04T22:25:42.322Z,391.57
2023-08-04T22:31:00.621Z,392.51
2023-08-04T22:36:27.269Z,390.73
2023-08-04T22:42:10.400Z,390.45
2023-08-04T22:47:18.404Z,391.27
2023-08-04T22:52:26.254Z,391.54
2023-08-04T22:58:12.023Z,392.07
2023-08-04T23:02:47.337Z,392.13
2023-08-04T23:07:55.238Z,392.44
2023-08-04T23:13:02.840Z,392.97
2023-08-04T23:18:10.617Z,393.29
2023-08-04T23:23:18.380Z,391.10
2023-08-04T23:28:26.186Z,391.49
2023-08-04T23:33:46.776Z,391.07
2023-08-04T23:39:44.236Z,391.58
2023-08-04T23:45:00.885Z,392.40
2023-08-04T23:50:25.656Z,392.00
2023-08-04T23:55:57.703Z,392.26
